»·PEaware :: N2842Y KSBA-KBUR

N2842Y :: KSBA-KBUR

FLIGHT INFORMATION

Flight Status: Arrived
Operator: Privately registered:
United States
More flights under this callsign
Pilot: Cody B. (17747)
Aircraft: CESSNA 172 SKYHAWK
(C172)
More flights by this aircraft type
Origin: KSBA Santa Barbara Mun
United States
Destination: KBUR Bob Hope-Burbank
United States
More flights between these airports :: More routes between these airports
Route: +
File this flight plan on PilotEdge
Remarks:
Altitude:
(Current/Filed)
5,500ft
Speed:
(Current/Filed)
115kts
Departed: 15-Jun-18 03:54 PM
Arrived: 15-Jun-18 04:40 PM
Distance/Time
Traveled:
75nm/0:46
Distance/Time
To Go:
Arrived

Flight Plot

Page will automatically refresh every two minutes.


Map Options




Map Legend


Flown Route
Filed Route
Departure Airport
Arrival Airport
Navaid (VOR, NDB)
Fix

Horizontal Profiles

Position Reports

Time Latitude Longitude Heading Altitude Ground
Speed
15-Jun-18 15:41 34.422664 -119.835593 340 10ft 0kts
15-Jun-18 15:42 34.422664 -119.835593 340 10ft 0kts
15-Jun-18 15:43 34.422664 -119.835593 340 10ft 0kts
15-Jun-18 15:44 34.422664 -119.835593 340 10ft 0kts
15-Jun-18 15:45 34.422664 -119.835593 340 10ft 0kts
15-Jun-18 15:46 34.422674 -119.835597 345 10ft 0kts
15-Jun-18 15:47 34.422789 -119.836124 255 10ft 6kts
15-Jun-18 15:48 34.423109 -119.837340 349 12ft 7kts
15-Jun-18 15:49 34.426420 -119.838240 0 11ft 11kts
15-Jun-18 15:50 34.426754 -119.835874 83 10ft 11kts
15-Jun-18 15:51 34.427173 -119.834615 359 10ft 0kts
15-Jun-18 15:52 34.427195 -119.834616 357 10ft 0kts
15-Jun-18 15:53 34.427876 -119.836096 269 10ft 10kts
15-Jun-18 15:54 34.427340 -119.857001 263 477ft 76kts
15-Jun-18 15:55 34.425674 -119.884038 261 1159ft 90kts
15-Jun-18 15:56 34.423780 -119.918897 279 1515ft 113kts
15-Jun-18 15:57 34.439080 -119.909502 108 2452ft 100kts
15-Jun-18 15:58 34.429036 -119.877820 107 3187ft 104kts
15-Jun-18 15:59 34.423398 -119.841898 100 3770ft 111kts
15-Jun-18 16:00 34.419062 -119.804764 98 4329ft 113kts
15-Jun-18 16:01 34.414366 -119.766753 105 4787ft 116kts
15-Jun-18 16:02 34.408924 -119.725330 93 4699ft 136kts
15-Jun-18 16:03 34.407734 -119.682284 97 4056ft 117kts
15-Jun-18 16:04 34.406083 -119.645272 95 4222ft 110kts
15-Jun-18 16:05 34.406078 -119.607049 94 4521ft 122kts
15-Jun-18 16:06 34.402337 -119.564111 95 4323ft 132kts
15-Jun-18 16:07 34.397179 -119.523477 98 4429ft 119kts
15-Jun-18 16:08 34.396462 -119.486722 91 4807ft 105kts
15-Jun-18 16:09 34.394771 -119.456521 97 4969ft 109kts
15-Jun-18 16:10 34.391401 -119.421759 99 5198ft 101kts
15-Jun-18 16:11 34.389594 -119.386110 90 5398ft 110kts
15-Jun-18 16:12 34.389913 -119.348115 96 5515ft 120kts
15-Jun-18 16:13 34.387162 -119.310061 99 5513ft 128kts
15-Jun-18 16:14 34.382499 -119.260414 101 5529ft 126kts
15-Jun-18 16:15 34.376243 -119.226180 109 5538ft 126kts
15-Jun-18 16:16 34.363618 -119.186003 119 5493ft 123kts
15-Jun-18 16:17 34.366742 -119.145169 77 5465ft 132kts
15-Jun-18 16:18 34.369649 -119.101326 93 5362ft 130kts
15-Jun-18 16:19 34.368400 -119.057774 94 5259ft 129kts
15-Jun-18 16:20 34.368236 -119.015193 91 5321ft 121kts
15-Jun-18 16:21 34.363664 -118.975872 101 5465ft 120kts
15-Jun-18 16:22 34.359578 -118.934775 99 5464ft 124kts
15-Jun-18 16:23 34.356593 -118.892897 97 5464ft 125kts
15-Jun-18 16:24 34.343765 -118.855475 124 5463ft 121kts
15-Jun-18 16:25 34.327018 -118.821512 127 5463ft 115kts
15-Jun-18 16:26 34.310161 -118.788566 125 5464ft 115kts
15-Jun-18 16:27 34.292807 -118.754366 125 5190ft 129kts
15-Jun-18 16:28 34.274190 -118.716614 125 4691ft 131kts
15-Jun-18 16:29 34.257915 -118.682501 125 4183ft 106kts
15-Jun-18 16:30 34.250215 -118.646768 107 3681ft 112kts
15-Jun-18 16:31 34.244085 -118.611872 107 3451ft 94kts
15-Jun-18 16:32 34.238999 -118.577943 106 3064ft 102kts
15-Jun-18 16:33 34.232148 -118.543678 107 2669ft 104kts
15-Jun-18 16:34 34.225118 -118.510164 106 2317ft 99kts
15-Jun-18 16:35 34.218377 -118.476346 109 2102ft 107kts
15-Jun-18 16:36 34.209251 -118.445043 123 2041ft 97kts
15-Jun-18 16:37 34.200817 -118.416660 105 1570ft 86kts
15-Jun-18 16:38 34.198414 -118.389152 97 1125ft 84kts
15-Jun-18 16:39 34.197893 -118.366685 92 725ft 58kts
15-Jun-18 16:40 34.197015 -118.360300 182 714ft 0kts
15-Jun-18 16:41 34.196818 -118.360250 167 713ft 6kts
15-Jun-18 16:42 34.195669 -118.358773 97 708ft 9kts
15-Jun-18 16:43 34.195804 -118.358175 351 707ft 0kts
15-Jun-18 16:44 34.195804 -118.358175 351 707ft 0kts
15-Jun-18 16:45 34.195804 -118.358175 351 707ft 0kts
15-Jun-18 16:46 34.195804 -118.358175 351 707ft 0kts
15-Jun-18 16:47 34.195804 -118.358175 350 707ft 0kts

Navigation Log

Ident Type
1. KSBA Airport
2. KBUR Airport